Time;durP1;ratioP1;P1;durP2;ratioP2;P2;SDS_P1;SDS_P2;PMS_P1;PMS_P2;Temp;Humidity;BMP_temperature;BMP_pressure;BME280_temperature;BME280_humidity;BME280_pressure;Samples;Min_cycle;Max_cycle;Signal;HPM_P1;HPM_P2
2021/04/14 00:01:57;;;;;;;2.60;0.30;;;;;;;1.43;48.84;103054.13;5068371;28;20108;-68
2021/04/14 00:04:23;;;;;;;2.88;0.50;;;;;;;1.44;48.64;103053.31;5082848;28;20039;-69
2021/04/14 00:06:50;;;;;;;2.03;0.30;;;;;;;1.22;49.09;103051.69;5079530;28;20024;-69
2021/04/14 00:09:16;;;;;;;4.57;0.88;;;;;;;1.47;48.69;103062.84;5083478;28;20032;-67
2021/04/14 00:11:41;;;;;;;2.65;0.50;;;;;;;1.34;48.56;103058.94;5078814;28;20408;-69
2021/04/14 00:14:08;;;;;;;9.27;0.65;;;;;;;1.29;48.41;103055.34;5076658;28;20048;-67
2021/04/14 00:16:34;;;;;;;3.72;0.40;;;;;;;1.36;48.51;103053.84;5077329;28;20086;-67
2021/04/14 00:19:00;;;;;;;1.02;0.10;;;;;;;1.36;48.34;103052.13;5073998;28;20032;-69
2021/04/14 00:21:26;;;;;;;5.55;0.28;;;;;;;1.30;48.34;103054.50;5081141;28;20098;-67
2021/04/14 00:23:53;;;;;;;1.27;0.50;;;;;;;1.23;48.69;103050.84;5080233;28;20024;-66
2021/04/14 00:26:18;;;;;;;3.30;0.80;;;;;;;1.19;48.71;103048.97;5076265;28;20032;-67
2021/04/14 00:28:44;;;;;;;8.30;0.30;;;;;;;1.07;48.47;103044.28;5077688;28;20422;-66
2021/04/14 00:31:11;;;;;;;5.22;1.05;;;;;;;1.05;48.66;103035.63;5077106;28;20155;-67
2021/04/14 00:33:36;;;;;;;2.97;0.38;;;;;;;1.21;48.41;103036.16;5083423;28;20040;-66
2021/04/14 00:36:03;;;;;;;2.05;0.50;;;;;;;1.09;48.54;103040.06;5083284;28;20032;-66
2021/04/14 00:38:28;;;;;;;1.00;0.40;;;;;;;1.03;48.70;103034.72;5079356;28;20119;-67
2021/04/14 00:40:58;;;;;;;3.53;0.30;;;;;;;0.95;48.59;103043.88;5082654;28;20123;-68
2021/04/14 00:43:27;;;;;;;2.80;0.50;;;;;;;0.92;48.50;103041.19;5079256;28;20032;-67
2021/04/14 00:45:53;;;;;;;3.35;0.50;;;;;;;0.81;48.69;103040.81;5081973;28;20048;-67
2021/04/14 00:48:19;;;;;;;2.05;0.17;;;;;;;0.76;48.68;103042.34;5058199;28;20059;-67
2021/04/14 00:50:45;;;;;;;1.60;0.30;;;;;;;0.79;48.63;103036.44;5078413;28;20490;-67
2021/04/14 00:53:11;;;;;;;2.13;0.20;;;;;;;0.76;48.81;103036.31;5077351;28;20489;-67
2021/04/14 00:55:38;;;;;;;0.82;0.30;;;;;;;0.75;48.94;103034.56;5081784;28;20035;-67
2021/04/14 00:58:05;;;;;;;3.13;0.30;;;;;;;0.71;49.16;103038.75;5081185;28;20059;-68
2021/04/14 01:00:42;;;;;;;2.33;0.30;;;;;;;0.74;48.98;103032.81;5082657;28;20884;-68
2021/04/14 01:03:31;;;;;;;2.65;0.22;;;;;;;0.76;49.06;103042.34;5079592;28;20040;-68
2021/04/14 01:05:58;;;;;;;6.28;0.32;;;;;;;0.75;49.03;103035.47;5081425;28;20032;-68
2021/04/14 01:08:24;;;;;;;3.65;0.40;;;;;;;0.74;49.10;103035.41;5060732;28;20025;-67
2021/04/14 01:10:50;;;;;;;4.03;0.50;;;;;;;0.81;48.93;103029.63;5081362;28;20145;-69
2021/04/14 01:13:16;;;;;;;3.45;0.20;;;;;;;0.72;49.01;103035.31;5079243;28;20032;-68
2021/04/14 01:15:44;;;;;;;1.15;0.40;;;;;;;0.73;49.13;103036.22;5078170;28;20666;-68
2021/04/14 01:18:14;;;;;;;1.13;0.25;;;;;;;0.81;49.11;103035.66;5080191;28;20039;-68
2021/04/14 01:20:40;;;;;;;2.25;0.40;;;;;;;0.71;49.21;103032.72;5084998;28;20036;-67
2021/04/14 01:23:06;;;;;;;2.25;0.28;;;;;;;0.66;49.31;103025.72;5071222;28;20047;-68
2021/04/14 01:25:35;;;;;;;4.13;0.65;;;;;;;0.73;49.18;103031.09;5091634;28;20336;-68
2021/04/14 01:28:11;;;;;;;3.28;0.22;;;;;;;0.71;49.20;103027.56;5091804;28;20501;-69
2021/04/14 01:30:38;;;;;;;1.08;0.20;;;;;;;0.67;49.16;103026.56;5088137;28;20042;-69
2021/04/14 01:33:04;;;;;;;1.48;0.10;;;;;;;0.67;49.33;103027.44;5084094;28;20129;-68
2021/04/14 01:35:30;;;;;;;4.25;0.25;;;;;;;0.61;49.35;103027.25;5080273;28;20160;-67
2021/04/14 01:37:56;;;;;;;2.05;0.30;;;;;;;0.52;49.30;103028.59;5078560;28;20115;-69
2021/04/14 01:40:23;;;;;;;5.60;0.30;;;;;;;0.49;49.37;103032.81;5077511;28;20032;-68
2021/04/14 01:42:49;;;;;;;3.65;0.50;;;;;;;0.47;49.54;103031.00;5073503;28;20497;-68
2021/04/14 01:45:19;;;;;;;2.58;0.35;;;;;;;0.48;49.70;103033.63;5077949;28;20041;-67
2021/04/14 01:47:45;;;;;;;1.33;0.40;;;;;;;0.49;49.77;103032.81;5075686;28;22196;-67
2021/04/14 01:50:11;;;;;;;1.88;0.30;;;;;;;0.52;49.63;103034.59;5077798;28;20024;-66
2021/04/14 01:52:36;;;;;;;6.90;0.40;;;;;;;0.51;49.49;103029.44;5079296;28;20691;-67
2021/04/14 01:55:05;;;;;;;1.05;0.20;;;;;;;0.46;49.34;103026.69;5076288;28;20127;-67
2021/04/14 01:57:31;;;;;;;1.00;0.20;;;;;;;0.49;49.13;103026.78;5080874;28;20040;-68
2021/04/14 01:59:57;;;;;;;3.47;0.32;;;;;;;0.46;49.47;103026.69;5079750;28;20073;-68
2021/04/14 02:02:22;;;;;;;2.60;0.30;;;;;;;0.45;49.76;103024.91;5076224;28;20071;-67
2021/04/14 02:04:49;;;;;;;6.13;0.40;;;;;;;0.45;49.62;103023.22;5096578;28;20848;-67
2021/04/14 02:07:15;;;;;;;3.25;0.22;;;;;;;0.48;49.13;103022.47;5072253;28;20126;-67
2021/04/14 02:09:40;;;;;;;2.53;0.50;;;;;;;0.46;49.32;103012.13;5074083;28;20104;-67
2021/04/14 02:12:07;;;;;;;1.48;0.35;;;;;;;0.37;49.16;103026.34;5078956;28;20169;-67
2021/04/14 02:14:33;;;;;;;3.53;0.43;;;;;;;0.34;49.40;103021.06;5079693;28;20032;-68
2021/04/14 02:16:59;;;;;;;1.75;0.22;;;;;;;0.29;49.30;103023.47;5077757;28;20039;-68
2021/04/14 02:19:25;;;;;;;1.27;0.30;;;;;;;0.31;49.45;103024.41;5077695;28;20214;-69
2021/04/14 02:21:51;;;;;;;1.83;0.30;;;;;;;0.31;49.55;103020.97;5074986;28;20089;-69
2021/04/14 02:24:16;;;;;;;12.05;1.00;;;;;;;0.32;49.68;103022.72;5078962;28;20538;-66
2021/04/14 02:26:41;;;;;;;7.20;1.30;;;;;;;0.40;49.59;103016.16;5074013;28;20039;-69
2021/04/14 02:29:07;;;;;;;3.17;0.50;;;;;;;0.33;49.35;103015.06;5077029;28;20449;-70
2021/04/14 02:31:32;;;;;;;1.35;0.52;;;;;;;0.33;49.61;103015.06;5072550;28;20039;-67
2021/04/14 02:34:05;;;;;;;2.00;0.45;;;;;;;0.27;49.80;103010.56;5079091;28;20040;-68
2021/04/14 02:36:31;;;;;;;2.30;0.47;;;;;;;0.36;49.62;103022.00;5063656;28;20047;-66
2021/04/14 02:38:56;;;;;;;3.45;0.77;;;;;;;0.25;49.70;103012.19;5080470;28;20134;-68
2021/04/14 02:41:22;;;;;;;4.95;0.30;;;;;;;0.30;49.87;103016.63;5073537;28;20107;-67
2021/04/14 02:43:49;;;;;;;2.58;0.30;;;;;;;0.30;49.69;103014.06;5078101;28;20440;-66
2021/04/14 02:46:15;;;;;;;6.18;0.60;;;;;;;0.25;49.94;103008.75;5074555;28;20121;-66
2021/04/14 02:48:40;;;;;;;4.00;0.25;;;;;;;0.21;50.06;103012.91;5075984;28;20040;-65
2021/04/14 02:51:07;;;;;;;1.20;0.35;;;;;;;0.24;49.87;103010.44;5074959;28;20057;-66
2021/04/14 02:53:33;;;;;;;7.68;0.50;;;;;;;0.19;49.75;103017.13;5080301;28;20118;-68
2021/04/14 02:55:58;;;;;;;4.82;0.40;;;;;;;0.05;50.12;103008.00;5071348;28;20050;-65
2021/04/14 02:58:24;;;;;;;1.38;0.30;;;;;;;0.10;49.66;103006.50;5076644;28;20059;-66
2021/04/14 03:00:49;;;;;;;4.18;0.38;;;;;;;0.15;49.94;103009.25;5055279;28;20047;-66
2021/04/14 03:03:15;;;;;;;3.63;0.52;;;;;;;0.09;49.63;103004.72;5076209;28;20029;-67
2021/04/14 03:05:41;;;;;;;5.90;0.95;;;;;;;0.01;49.79;103009.59;5078860;28;20512;-66
2021/04/14 03:08:06;;;;;;;3.72;0.85;;;;;;;0.11;49.92;103008.22;5075453;28;20032;-66
2021/04/14 03:10:32;;;;;;;3.08;0.43;;;;;;;0.22;49.81;103001.78;5076754;28;20107;-67
2021/04/14 03:12:58;;;;;;;3.97;0.57;;;;;;;0.30;49.77;103003.78;5074915;28;20040;-65
2021/04/14 03:15:31;;;;;;;9.77;0.60;;;;;;;0.23;50.01;103005.25;5075596;28;20524;-67
2021/04/14 03:17:57;;;;;;;5.38;0.65;;;;;;;0.19;49.75;103000.78;5073962;28;20043;-65
2021/04/14 03:20:23;;;;;;;5.05;1.15;;;;;;;0.05;49.81;103005.44;5059120;28;20067;-66
2021/04/14 03:22:51;;;;;;;1.35;0.20;;;;;;;0.09;49.99;103004.72;5076009;28;20036;-69
2021/04/14 03:25:18;;;;;;;3.85;0.57;;;;;;;0.16;50.04;103011.84;5083680;28;20038;-67
2021/04/14 03:27:43;;;;;;;4.32;1.00;;;;;;;0.23;50.38;103003.56;5085216;28;20032;-67
2021/04/14 03:30:10;;;;;;;4.85;0.90;;;;;;;0.28;49.81;103002.03;5080340;28;20028;-67
2021/04/14 03:32:35;;;;;;;5.85;0.40;;;;;;;0.35;49.92;103004.84;5088414;28;20035;-67
2021/04/14 03:35:03;;;;;;;1.80;0.40;;;;;;;0.46;50.06;103000.97;5077877;28;20063;-67
2021/04/14 03:37:29;;;;;;;5.45;0.40;;;;;;;0.61;50.08;103005.75;5080192;28;20032;-67
2021/04/14 03:39:55;;;;;;;2.65;0.70;;;;;;;0.65;50.22;103008.50;5081247;28;20551;-67
2021/04/14 03:42:20;;;;;;;3.40;0.45;;;;;;;0.86;50.30;103004.94;5084171;28;20662;-66
2021/04/14 03:44:51;;;;;;;5.47;0.68;;;;;;;0.99;49.84;103013.94;5080679;28;20088;-67
2021/04/14 03:47:17;;;;;;;5.15;0.30;;;;;;;1.22;49.74;103001.88;5078970;28;20441;-67
2021/04/14 03:49:42;;;;;;;1.80;0.20;;;;;;;1.35;49.93;103004.03;5077578;28;20032;-67
2021/04/14 03:52:08;;;;;;;4.18;0.35;;;;;;;1.48;49.85;103008.78;5079827;28;20094;-67
2021/04/14 03:54:33;;;;;;;2.65;0.60;;;;;;;1.43;49.78;103001.72;5078408;28;20050;-68
2021/04/14 03:56:58;;;;;;;3.20;0.20;;;;;;;1.29;50.14;103004.69;5076536;28;20048;-67
2021/04/14 03:59:24;;;;;;;1.23;0.30;;;;;;;1.31;49.70;103002.16;5066192;28;20421;-67
2021/04/14 04:01:49;;;;;;;3.10;0.63;;;;;;;1.16;49.97;103001.66;5079267;28;20040;-67
2021/04/14 04:04:15;;;;;;;6.97;0.57;;;;;;;1.21;49.84;103000.97;5078659;28;20067;-66
2021/04/14 04:06:40;;;;;;;2.13;0.32;;;;;;;1.17;50.01;102998.25;5078691;28;20046;-67
2021/04/14 04:09:06;;;;;;;8.32;0.95;;;;;;;1.10;49.96;103002.31;5078944;28;20108;-66
2021/04/14 04:11:31;;;;;;;3.08;0.30;;;;;;;1.05;49.99;102994.44;5078921;28;20032;-66
2021/04/14 04:13:58;;;;;;;10.15;0.60;;;;;;;1.01;49.90;102997.72;5080680;28;20138;-67
2021/04/14 04:16:24;;;;;;;4.03;0.60;;;;;;;0.86;49.99;102999.78;5060402;28;20036;-66
2021/04/14 04:18:50;;;;;;;1.50;0.60;;;;;;;0.93;50.01;103006.91;5078948;28;20032;-67
2021/04/14 04:21:17;;;;;;;3.60;0.43;;;;;;;0.80;50.17;103004.72;5081589;28;20067;-66
2021/04/14 04:23:42;;;;;;;3.72;0.65;;;;;;;0.81;50.13;103003.88;5080788;28;20040;-67
2021/04/14 04:26:08;;;;;;;2.97;0.75;;;;;;;0.64;50.03;103004.19;5081380;28;20093;-66
2021/04/14 04:28:34;;;;;;;5.50;0.85;;;;;;;0.54;50.35;103002.09;5078619;28;20115;-67
2021/04/14 04:31:00;;;;;;;6.75;0.60;;;;;;;0.46;50.43;103006.97;5078227;28;20434;-67
2021/04/14 04:33:26;;;;;;;1.30;0.40;;;;;;;0.39;50.57;103011.81;5062231;28;20047;-69
2021/04/14 04:35:51;;;;;;;3.22;0.75;;;;;;;0.36;50.42;103014.28;5069774;28;20408;-68
2021/04/14 04:38:17;;;;;;;2.25;0.47;;;;;;;0.31;50.23;103015.84;5078124;28;20040;-67
2021/04/14 04:40:43;;;;;;;1.92;0.60;;;;;;;0.26;50.05;103024.25;5064726;28;20031;-68
2021/04/14 04:43:10;;;;;;;2.78;0.38;;;;;;;0.14;50.24;103026.34;5080866;28;20036;-66
2021/04/14 04:45:36;;;;;;;0.85;0.20;;;;;;;0.10;50.35;103024.50;5090593;28;20043;-68
2021/04/14 04:48:02;;;;;;;4.32;0.60;;;;;;;0.21;50.89;103020.63;5077603;28;20047;-67
2021/04/14 04:50:30;;;;;;;8.35;0.70;;;;;;;0.30;50.56;103034.63;5063724;28;20055;-68
2021/04/14 04:53:00;;;;;;;5.60;1.10;;;;;;;0.37;50.79;103029.78;5078474;28;20539;-67
2021/04/14 04:55:26;;;;;;;1.77;0.43;;;;;;;0.42;50.56;103029.97;5083100;28;20035;-69
2021/04/14 04:57:51;;;;;;;4.20;0.47;;;;;;;0.41;50.19;103028.19;5075302;28;20032;-67
2021/04/14 05:00:19;;;;;;;9.27;0.70;;;;;;;0.38;50.62;103028.09;5062515;28;20040;-67
2021/04/14 05:02:44;;;;;;;4.70;1.75;;;;;;;0.44;50.69;103028.31;5083012;28;20028;-68
2021/04/14 05:05:15;;;;;;;2.40;0.32;;;;;;;0.51;50.58;103035.44;5074444;28;20510;-68
2021/04/14 05:07:41;;;;;;;1.92;0.60;;;;;;;0.66;50.43;103036.00;5066726;28;20039;-66
2021/04/14 05:10:08;;;;;;;8.07;1.25;;;;;;;0.82;50.34;103036.56;5078448;28;20576;-69
2021/04/14 05:12:33;;;;;;;2.70;0.50;;;;;;;0.94;50.20;103030.94;5079942;28;20041;-67
2021/04/14 05:15:00;;;;;;;2.30;0.88;;;;;;;1.08;49.75;103035.75;5072028;28;20032;-67
2021/04/14 05:17:25;;;;;;;3.58;0.65;;;;;;;1.18;49.31;103036.06;5077998;28;20432;-70
2021/04/14 05:19:51;;;;;;;3.38;0.70;;;;;;;1.09;49.42;103036.63;5079506;28;20027;-69
2021/04/14 05:22:17;;;;;;;7.57;0.50;;;;;;;1.16;49.06;103037.72;5073270;28;20044;-67
2021/04/14 05:24:42;;;;;;;3.83;0.50;;;;;;;1.17;49.53;103039.44;5079286;28;20103;-68
2021/04/14 05:27:08;;;;;;;10.43;1.42;;;;;;;1.84;48.77;103046.88;5075009;28;20435;-68
2021/04/14 05:29:34;;;;;;;5.10;1.05;;;;;;;4.05;45.88;103051.03;5078564;28;20071;-67
2021/04/14 05:32:00;;;;;;;6.07;0.70;;;;;;;5.05;41.47;103046.16;5078433;28;20543;-67
2021/04/14 05:34:26;;;;;;;2.83;1.17;;;;;;;3.97;42.10;103049.13;5079884;28;20377;-69
2021/04/14 05:36:52;;;;;;;3.50;0.77;;;;;;;3.21;43.46;103050.72;5077888;28;20123;-67
2021/04/14 05:39:19;;;;;;;5.35;0.85;;;;;;;4.15;43.59;103053.84;5075850;28;20044;-68
2021/04/14 05:41:45;;;;;;;2.67;0.57;;;;;;;5.73;39.06;103052.47;5080746;28;20406;-68
2021/04/14 05:44:10;;;;;;;3.00;0.80;;;;;;;5.60;39.55;103060.06;5076460;28;20046;-67
2021/04/14 05:46:36;;;;;;;3.17;0.50;;;;;;;6.46;36.74;103052.59;5075867;28;20038;-69
2021/04/14 05:49:02;;;;;;;3.08;0.63;;;;;;;5.26;38.39;103056.03;5076370;28;20034;-67
2021/04/14 05:51:32;;;;;;;2.05;0.52;;;;;;;5.45;41.14;103059.81;5075688;28;20535;-67
2021/04/14 05:54:00;;;;;;;1.42;0.35;;;;;;;6.27;38.39;103059.28;5078755;28;20040;-67
2021/04/14 05:56:27;;;;;;;4.68;0.52;;;;;;;6.77;37.27;103064.22;5077440;28;20040;-67
2021/04/14 05:58:53;;;;;;;1.75;0.52;;;;;;;7.80;33.92;103057.38;5076368;28;20044;-66
2021/04/14 06:01:21;;;;;;;4.00;0.47;;;;;;;8.84;33.66;103051.75;5077510;28;20043;-67
2021/04/14 06:03:49;;;;;;;3.60;1.02;;;;;;;7.94;33.86;103065.28;5073179;28;20279;-66
2021/04/14 06:06:15;;;;;;;5.05;0.40;;;;;;;7.46;34.74;103061.41;5074187;28;20028;-68
2021/04/14 06:08:40;;;;;;;2.55;0.50;;;;;;;10.19;32.69;103061.25;5075795;28;20056;-68
2021/04/14 06:11:06;;;;;;;3.88;0.32;;;;;;;12.40;27.68;103056.00;5076115;28;20072;-68
2021/04/14 06:13:33;;;;;;;1.63;0.70;;;;;;;14.02;25.51;103056.94;5077440;28;20081;-67
2021/04/14 06:15:59;;;;;;;2.00;0.52;;;;;;;14.95;24.23;103052.28;5059570;28;20040;-69
2021/04/14 06:18:24;;;;;;;4.43;0.93;;;;;;;15.65;23.51;103051.41;5080979;28;20115;-66
2021/04/14 06:20:50;;;;;;;1.52;0.30;;;;;;;15.92;22.86;103059.47;5076795;28;20050;-68
2021/04/14 06:23:18;;;;;;;4.35;0.50;;;;;;;16.47;21.77;103051.75;5075896;28;20516;-68
2021/04/14 06:28:31;;;;;;;3.55;0.47;;;;;;;17.13;20.50;103047.88;5047511;28;20603;-68
2021/04/14 06:30:57;;;;;;;3.97;0.40;;;;;;;17.79;21.72;103050.03;5075055;28;20025;-66
2021/04/14 06:33:23;;;;;;;2.80;0.50;;;;;;;18.77;19.58;103054.25;5074096;28;20123;-68
2021/04/14 06:35:52;;;;;;;5.57;0.32;;;;;;;18.64;20.08;103055.66;5077767;28;20063;-68
2021/04/14 06:38:22;;;;;;;5.68;0.77;;;;;;;18.84;19.15;103061.00;5073936;28;20032;-69
2021/04/14 06:44:01;;;;;;;3.85;0.35;;;;;;;17.31;21.66;103056.09;5073785;28;20043;-68
2021/04/14 06:46:30;;;;;;;2.88;0.30;;;;;;;17.81;21.32;103056.16;5092947;28;20039;-67
2021/04/14 06:49:11;;;;;;;3.30;0.50;;;;;;;18.11;20.06;103059.41;5075735;28;20785;-66
2021/04/14 06:51:46;;;;;;;3.10;0.20;;;;;;;17.54;20.57;103063.28;5089951;28;20064;-69
2021/04/14 06:54:20;;;;;;;5.68;0.50;;;;;;;18.42;20.74;103072.38;5079137;28;20302;-67
2021/04/14 06:56:52;;;;;;;3.63;0.20;;;;;;;19.15;20.21;103070.38;5076927;28;20115;-69
2021/04/14 06:59:23;;;;;;;6.35;0.40;;;;;;;18.57;20.34;103067.44;5076598;28;20024;-70
2021/04/14 07:01:55;;;;;;;6.43;0.20;;;;;;;17.93;20.42;103063.63;5076868;28;20036;-68
2021/04/14 07:04:25;;;;;;;3.38;0.65;;;;;;;18.25;20.47;103065.09;5076855;28;20048;-68
2021/04/14 07:06:53;;;;;;;3.22;0.20;;;;;;;17.95;20.71;103056.50;5074889;28;20036;-70
2021/04/14 07:09:34;;;;;;;3.40;0.25;;;;;;;17.48;20.91;103064.34;5074253;28;20094;-68
2021/04/14 07:12:01;;;;;;;4.50;0.38;;;;;;;14.71;25.12;103066.03;5074437;28;20037;-67
2021/04/14 07:14:28;;;;;;;4.40;0.28;;;;;;;14.90;26.08;103066.44;5075077;28;20142;-67
2021/04/14 07:17:35;;;;;;;3.03;0.30;;;;;;;12.64;27.51;103058.31;5076031;28;20067;-66
2021/04/14 07:20:23;;;;;;;7.90;1.40;;;;;;;10.33;30.90;103059.47;5051326;28;20599;-69
2021/04/14 07:23:14;;;;;;;5.30;0.70;;;;;;;9.01;33.49;103069.16;5076164;28;20602;-67
2021/04/14 07:25:58;;;;;;;3.85;0.30;;;;;;;8.76;34.44;103069.13;5059972;28;20035;-69
2021/04/14 07:28:35;;;;;;;1.77;0.65;;;;;;;7.47;35.53;103077.06;5075665;28;20028;-69
2021/04/14 07:31:24;;;;;;;2.10;0.20;;;;;;;6.91;37.79;103077.41;5063248;28;20085;-69
2021/04/14 07:34:01;;;;;;;3.00;0.20;;;;;;;6.78;36.43;103079.00;5079333;28;20039;-69
2021/04/14 07:36:51;;;;;;;1.67;0.17;;;;;;;6.40;37.26;103084.59;5091705;28;20040;-67
2021/04/14 07:39:24;;;;;;;1.38;0.30;;;;;;;6.03;38.36;103072.78;5075447;28;20552;-67
2021/04/14 07:42:05;;;;;;;2.40;0.45;;;;;;;6.48;36.90;103075.19;5090132;28;20064;-68
2021/04/14 07:44:42;;;;;;;6.80;0.13;;;;;;;6.81;36.25;103070.34;5075124;28;20032;-67
2021/04/14 07:47:11;;;;;;;3.03;0.10;;;;;;;7.96;33.19;103058.34;5072995;28;20293;-66
2021/04/14 07:49:37;;;;;;;3.60;0.10;;;;;;;11.71;26.90;103051.53;5072659;28;20106;-67
2021/04/14 07:52:04;;;;;;;2.40;0.08;;;;;;;14.31;23.11;103058.97;5070694;28;20523;-67
2021/04/14 07:54:50;;;;;;;3.72;0.20;;;;;;;14.94;22.00;103044.41;5072864;28;20047;-67
2021/04/14 07:57:32;;;;;;;2.63;0.63;;;;;;;16.04;21.22;103048.63;5060147;28;20470;-68
2021/04/14 08:00:10;;;;;;;0.70;0.15;;;;;;;15.59;21.37;103043.66;5070295;28;20512;-68
2021/04/14 08:02:37;;;;;;;5.70;0.65;;;;;;;17.01;20.65;103040.38;5072124;28;20097;-69
2021/04/14 08:05:22;;;;;;;4.43;0.20;;;;;;;17.80;19.88;103043.81;5071184;28;20020;-68
2021/04/14 08:07:48;;;;;;;4.20;0.40;;;;;;;16.35;20.60;103043.31;5072706;28;20257;-70
2021/04/14 08:10:21;;;;;;;3.20;0.20;;;;;;;17.00;19.84;103046.56;5073794;28;20255;-67
2021/04/14 08:13:04;;;;;;;0.90;0.10;;;;;;;16.02;21.26;103053.06;5079996;28;20714;-66
2021/04/14 08:15:31;;;;;;;2.15;0.30;;;;;;;15.48;22.13;103061.53;5078194;28;20158;-67
2021/04/14 08:18:14;;;;;;;4.47;0.20;;;;;;;14.93;22.92;103056.72;5076845;28;20031;-67
2021/04/14 08:20:41;;;;;;;1.70;0.10;;;;;;;15.24;22.55;103061.28;5073262;28;20031;-68
2021/04/14 08:23:26;;;;;;;1.70;0.22;;;;;;;15.29;22.75;103058.53;5075064;28;20032;-68
2021/04/14 08:25:57;;;;;;;2.30;0.20;;;;;;;14.70;23.43;103053.75;5077339;28;20611;-69
2021/04/14 08:28:45;;;;;;;7.93;1.58;;;;;;;14.20;23.59;103048.66;5074193;28;20036;-68
2021/04/14 08:31:34;;;;;;;1.55;0.47;;;;;;;11.87;26.06;103054.03;5075937;28;20036;-68
2021/04/14 08:34:12;;;;;;;3.00;0.10;;;;;;;13.68;24.21;103040.06;5076419;28;20597;-69
2021/04/14 08:36:58;;;;;;;2.90;0.30;;;;;;;14.32;22.95;103045.78;5076396;28;20111;-68
2021/04/14 08:39:39;;;;;;;1.98;0.10;;;;;;;11.70;26.56;103047.19;5076755;28;20053;-68
2021/04/14 08:42:20;;;;;;;3.97;0.25;;;;;;;10.12;28.88;103049.97;5075470;28;20058;-68
2021/04/14 08:45:06;;;;;;;2.50;0.32;;;;;;;10.15;28.98;103049.09;5077000;28;20089;-69
2021/04/14 08:47:34;;;;;;;6.57;0.10;;;;;;;9.17;30.54;103057.91;5063464;28;20082;-67
2021/04/14 08:50:10;;;;;;;2.58;0.20;;;;;;;7.55;33.14;103055.44;5058382;28;20674;-67
2021/04/14 08:52:44;;;;;;;3.92;0.20;;;;;;;7.90;33.50;103053.97;5079266;28;20032;-68
2021/04/14 08:55:12;;;;;;;5.28;0.30;;;;;;;7.91;33.73;103052.22;5075665;28;20037;-68
2021/04/14 08:57:38;;;;;;;4.53;0.55;;;;;;;8.77;31.74;103052.63;5080209;28;20043;-67
2021/04/14 09:00:06;;;;;;;2.35;0.20;;;;;;;10.10;30.74;103056.97;5078099;28;20132;-66
2021/04/14 09:02:32;;;;;;;4.07;0.20;;;;;;;10.79;29.97;103058.38;5081174;28;20027;-67
2021/04/14 09:04:58;;;;;;;1.92;0.40;;;;;;;11.13;29.59;103053.81;5082241;28;20455;-68
2021/04/14 09:07:32;;;;;;;3.17;0.10;;;;;;;11.40;27.75;103062.34;5078500;28;20036;-67
2021/04/14 09:09:59;;;;;;;3.15;0.38;;;;;;;10.42;28.28;103064.66;5076755;28;20651;-67
2021/04/14 09:12:56;;;;;;;3.53;0.20;;;;;;;9.26;30.64;103070.94;5079687;28;20044;-67
2021/04/14 09:15:22;;;;;;;1.70;0.10;;;;;;;8.83;32.06;103076.13;5069032;28;20107;-67
2021/04/14 09:18:04;;;;;;;2.28;0.10;;;;;;;7.91;33.75;103060.94;5078173;28;20036;-66
2021/04/14 09:20:35;;;;;;;2.25;0.20;;;;;;;9.06;33.09;103064.84;5077372;28;20053;-66
2021/04/14 09:23:13;;;;;;;2.60;0.43;;;;;;;9.55;31.28;103065.72;5060356;28;20593;-68
2021/04/14 09:25:43;;;;;;;1.50;0.57;;;;;;;9.03;31.41;103067.44;5079955;28;20029;-66
2021/04/14 09:28:36;;;;;;;3.22;0.15;;;;;;;9.08;30.81;103073.56;5077487;28;20110;-68
2021/04/14 09:31:28;;;;;;;1.40;0.55;;;;;;;8.48;33.49;103073.34;5075739;28;20032;-68
2021/04/14 09:33:55;;;;;;;2.03;0.10;;;;;;;9.28;34.32;103074.44;5078297;28;20165;-67
2021/04/14 09:36:43;;;;;;;2.88;0.63;;;;;;;8.88;33.55;103074.38;5075141;28;20039;-68
2021/04/14 09:39:16;;;;;;;3.88;0.30;;;;;;;9.41;33.16;103075.31;5076877;28;20039;-67
2021/04/14 09:41:42;;;;;;;3.53;0.13;;;;;;;9.75;32.23;103075.28;5065256;28;20505;-69
2021/04/14 09:44:39;;;;;;;5.00;0.50;;;;;;;9.70;32.81;103079.63;5076970;28;20043;-68
2021/04/14 09:47:35;;;;;;;2.75;0.20;;;;;;;10.21;32.04;103070.84;5072775;28;20059;-67
2021/04/14 09:50:19;;;;;;;2.80;0.52;;;;;;;10.34;30.54;103083.88;5061782;28;20077;-68
2021/04/14 09:52:44;;;;;;;1.67;0.10;;;;;;;10.10;30.81;103083.09;5095019;28;20036;-67
2021/04/14 09:55:34;;;;;;;0.57;0.10;;;;;;;9.99;30.15;103079.59;5077276;28;20040;-69
2021/04/14 09:58:07;;;;;;;0.60;0.10;;;;;;;10.06;29.33;103076.13;5078760;28;20055;-67
2021/04/14 10:00:39;;;;;;;0.95;0.10;;;;;;;9.94;29.41;103076.16;5077800;28;20032;-66
2021/04/14 10:03:36;;;;;;;4.72;0.15;;;;;;;10.38;27.56;103072.53;5079042;28;20063;-67
2021/04/14 10:06:10;;;;;;;1.77;0.10;;;;;;;10.78;27.92;103073.19;5077237;28;20024;-67
2021/04/14 10:08:38;;;;;;;1.10;0.00;;;;;;;10.05;29.19;103074.38;5074446;28;20489;-68
2021/04/14 10:11:04;;;;;;;0.47;0.10;;;;;;;9.61;28.58;103075.31;5079257;28;20673;-66
2021/04/14 10:13:32;;;;;;;0.85;0.05;;;;;;;10.22;28.99;103061.28;5079833;28;20118;-66
2021/04/14 10:15:59;;;;;;;1.17;0.05;;;;;;;10.18;28.84;103068.22;5076847;28;20020;-69
2021/04/14 10:18:29;;;;;;;6.35;0.30;;;;;;;9.97;29.81;103061.34;5076191;28;20472;-66
2021/04/14 10:20:55;;;;;;;0.85;0.10;;;;;;;10.18;29.58;103060.41;5081208;28;20035;-70
2021/04/14 10:23:25;;;;;;;3.70;0.10;;;;;;;10.09;28.51;103055.22;5070600;28;20028;-68
2021/04/14 10:26:02;;;;;;;1.95;0.10;;;;;;;10.33;29.80;103058.63;5077969;28;20027;-68
2021/04/14 10:28:28;;;;;;;3.50;0.17;;;;;;;9.54;29.88;103060.50;5077070;28;20040;-68
2021/04/14 10:31:05;;;;;;;2.95;0.17;;;;;;;8.82;31.31;103063.06;5076554;28;20026;-68
2021/04/14 10:33:31;;;;;;;3.95;0.20;;;;;;;9.26;30.40;103060.50;5087046;28;20036;-68
2021/04/14 10:36:13;;;;;;;4.30;0.10;;;;;;;10.81;29.83;103051.38;5087874;28;20036;-68
2021/04/14 10:38:39;;;;;;;1.02;0.15;;;;;;;9.82;30.01;103044.84;5075148;28;20799;-70
2021/04/14 10:41:22;;;;;;;1.08;0.40;;;;;;;9.80;29.09;103053.53;5080444;28;20190;-70
2021/04/14 10:43:48;;;;;;;3.70;0.38;;;;;;;10.22;28.06;103050.81;5080722;28;20394;-69
2021/04/14 10:46:26;;;;;;;0.68;0.10;;;;;;;10.17;28.53;103044.75;5077904;28;20032;-68
2021/04/14 10:49:01;;;;;;;2.50;0.10;;;;;;;10.71;29.40;103049.72;5078398;28;20051;-66
2021/04/14 10:51:32;;;;;;;1.35;0.40;;;;;;;9.42;30.29;103039.63;5074904;28;20717;-68
2021/04/14 10:54:00;;;;;;;2.60;0.10;;;;;;;9.99;31.32;103046.53;5078431;28;20043;-66
2021/04/14 10:56:30;;;;;;;3.83;0.10;;;;;;;10.58;30.80;103044.53;5076411;28;20580;-68
2021/04/14 10:58:59;;;;;;;1.27;0.10;;;;;;;9.68;30.28;103037.88;5076257;28;20169;-68
2021/04/14 11:01:39;;;;;;;4.72;0.20;;;;;;;9.86;32.03;103046.59;5060928;28;20032;-69
2021/04/14 11:04:29;;;;;;;1.63;0.10;;;;;;;10.48;28.96;103037.63;5080052;28;20114;-67
2021/04/14 11:07:00;;;;;;;3.40;0.40;;;;;;;9.56;30.00;103032.66;5080804;28;20107;-69
2021/04/14 11:09:27;;;;;;;3.57;0.40;;;;;;;8.76;31.63;103032.63;5075087;28;20033;-67
2021/04/14 11:11:53;;;;;;;0.80;0.10;;;;;;;10.60;29.62;103027.09;5077267;28;20079;-68
2021/04/14 11:14:19;;;;;;;3.97;0.17;;;;;;;10.77;29.44;103028.72;5075104;28;20052;-68
2021/04/14 11:16:47;;;;;;;0.73;0.22;;;;;;;10.38;29.14;103025.47;5086612;28;20208;-68
2021/04/14 11:19:22;;;;;;;2.28;0.25;;;;;;;10.06;30.87;103028.22;5075314;28;20036;-68
2021/04/14 11:22:09;;;;;;;1.48;0.10;;;;;;;9.05;32.33;103034.41;5076357;28;20048;-69
2021/04/14 11:24:51;;;;;;;3.30;0.10;;;;;;;9.61;30.84;103030.94;5075605;28;20024;-68
2021/04/14 11:27:23;;;;;;;6.03;0.65;;;;;;;9.74;31.26;103032.63;5074075;28;20032;-68
2021/04/14 11:29:50;;;;;;;;;;;;;;;9.90;29.98;103024.78;5086054;28;20047;-67
2021/04/14 11:32:25;;;;;;;2.38;0.08;;;;;;;10.56;29.24;103030.59;5074499;28;20373;-68
2021/04/14 11:35:12;;;;;;;0.55;0.10;;;;;;;10.38;29.64;103033.31;5072247;28;20058;-68
2021/04/14 11:37:37;;;;;;;0.52;0.10;;;;;;;10.24;29.58;103028.16;5055649;28;20035;-68
2021/04/14 11:40:14;;;;;;;2.45;0.05;;;;;;;10.25;29.73;103023.78;5077585;28;20035;-67
2021/04/14 11:42:50;;;;;;;2.33;0.10;;;;;;;9.72;30.60;103026.56;5075926;28;20095;-68
2021/04/14 11:45:23;;;;;;;2.83;0.50;;;;;;;10.62;30.25;103027.97;5081535;28;20032;-69
2021/04/14 11:47:48;;;;;;;4.65;0.15;;;;;;;9.56;31.01;103028.28;5094784;28;20151;-68
2021/04/14 11:50:19;;;;;;;4.70;0.20;;;;;;;9.07;30.58;103027.44;5078781;28;20112;-67
2021/04/14 11:52:56;;;;;;;2.63;0.10;;;;;;;8.01;32.84;103035.81;5079841;28;20083;-67